createdAt,value
2019-05-09T00:01:15.686Z,97801.16
2019-05-09T00:03:45.541Z,97803.66
2019-05-09T00:06:15.180Z,97801.48
2019-05-09T00:08:45.006Z,97799.50
2019-05-09T00:11:14.984Z,97801.09
2019-05-09T00:13:44.688Z,97806.11
2019-05-09T00:16:14.767Z,97806.09
2019-05-09T00:18:44.569Z,97810.91
2019-05-09T00:21:19.319Z,97811.11
2019-05-09T00:23:49.126Z,97810.14
2019-05-09T00:26:18.801Z,97814.89
2019-05-09T00:28:53.339Z,97817.88
2019-05-09T00:31:43.809Z,97816.16
2019-05-09T00:34:18.956Z,97820.57
2019-05-09T00:36:48.651Z,97817.53
2019-05-09T00:39:18.372Z,97818.16
2019-05-09T00:41:47.875Z,97811.80
2019-05-09T00:44:23.313Z,97811.12
2019-05-09T00:47:05.497Z,97810.81
2019-05-09T00:49:34.938Z,97796.83
2019-05-09T00:52:04.429Z,97797.25
2019-05-09T00:54:34.048Z,97802.79
2019-05-09T00:57:03.451Z,97799.54
2019-05-09T00:59:33.344Z,97799.27
2019-05-09T01:02:03.959Z,97797.17
2019-05-09T01:04:33.691Z,97791.70
2019-05-09T01:07:03.553Z,97790.53
2019-05-09T01:09:33.622Z,97790.84
2019-05-09T01:12:04.045Z,97785.39
2019-05-09T01:14:34.167Z,97786.61
2019-05-09T01:17:04.365Z,97784.81
2019-05-09T01:19:34.047Z,97781.69
2019-05-09T01:22:03.899Z,97782.84
2019-05-09T01:24:33.929Z,97781.70
2019-05-09T01:27:03.888Z,97780.96
2019-05-09T01:29:33.883Z,97780.22
2019-05-09T01:32:07.411Z,97781.27
2019-05-09T01:34:37.445Z,97781.58
2019-05-09T01:37:08.226Z,97774.48
2019-05-09T01:39:38.131Z,97779.01
2019-05-09T01:42:07.639Z,97779.84
2019-05-09T01:44:37.040Z,97775.61
2019-05-09T01:47:06.854Z,97771.04
2019-05-09T01:49:36.256Z,97782.27
2019-05-09T01:52:06.162Z,97785.59
2019-05-09T01:54:37.699Z,97778.09
2019-05-09T01:57:07.501Z,97777.86
2019-05-09T01:59:36.912Z,97789.00
2019-05-09T02:02:08.748Z,97786.73
2019-05-09T02:04:38.533Z,97787.02
2019-05-09T02:07:08.388Z,97803.36
2019-05-09T02:09:38.105Z,97798.66
2019-05-09T02:12:07.772Z,97799.84
2019-05-09T02:14:44.165Z,97795.09
2019-05-09T02:17:33.462Z,97796.09
2019-05-09T02:20:04.008Z,97800.47
2019-05-09T02:22:34.496Z,97792.55
2019-05-09T02:25:09.331Z,97792.59
2019-05-09T02:27:38.724Z,97799.08
2019-05-09T02:30:10.203Z,97793.77
2019-05-09T02:32:40.029Z,97794.77
2019-05-09T02:35:10.200Z,97783.27
2019-05-09T02:37:40.000Z,97783.34
2019-05-09T02:40:10.630Z,97784.33
2019-05-09T02:42:40.483Z,97776.07
2019-05-09T02:45:10.653Z,97772.16
2019-05-09T02:47:40.534Z,97772.62
2019-05-09T02:50:10.699Z,97774.67
2019-05-09T02:52:40.420Z,97778.80
2019-05-09T02:55:10.871Z,97773.88
2019-05-09T02:57:40.839Z,97768.37
2019-05-09T03:00:20.260Z,97767.94
2019-05-09T03:03:03.822Z,97768.51
2019-05-09T03:05:33.553Z,97769.64
2019-05-09T03:08:03.187Z,97765.69
2019-05-09T03:10:32.862Z,97768.87
2019-05-09T03:13:02.516Z,97762.79
2019-05-09T03:15:32.843Z,97761.84
2019-05-09T03:18:02.244Z,97753.13
2019-05-09T03:20:53.669Z,97758.88
2019-05-09T03:23:23.181Z,97759.85
2019-05-09T03:25:52.895Z,97758.48
2019-05-09T03:28:44.940Z,97759.61
2019-05-09T03:31:19.506Z,97755.05
2019-05-09T03:33:50.023Z,97748.45
2019-05-09T03:36:18.745Z,97738.09
2019-05-09T03:38:48.142Z,97741.02
2019-05-09T03:41:17.917Z,97740.98
2019-05-09T03:43:48.290Z,97734.94
2019-05-09T03:46:34.417Z,97746.06
2019-05-09T03:49:12.640Z,97739.81
2019-05-09T03:51:42.363Z,97749.34
2019-05-09T03:54:12.056Z,97736.53
2019-05-09T03:56:47.815Z,97745.29
2019-05-09T03:59:17.674Z,97743.17
2019-05-09T04:01:50.144Z,97745.13
2019-05-09T04:04:19.555Z,97748.70
2019-05-09T04:06:49.369Z,97743.59
2019-05-09T04:09:19.143Z,97744.37
2019-05-09T04:11:48.832Z,97743.64
2019-05-09T04:14:21.912Z,97739.91
2019-05-09T04:16:51.644Z,97743.66
2019-05-09T04:19:21.411Z,97750.77
2019-05-09T04:21:51.263Z,97745.41
2019-05-09T04:24:21.248Z,97746.79
2019-05-09T04:26:59.185Z,97747.16
2019-05-09T04:29:28.899Z,97745.16
2019-05-09T04:31:58.301Z,97741.02
2019-05-09T04:34:27.853Z,97740.38
2019-05-09T04:36:57.875Z,97743.39
2019-05-09T04:39:28.350Z,97743.61
2019-05-09T04:42:03.638Z,97748.44
2019-05-09T04:44:37.363Z,97747.14
2019-05-09T04:47:08.781Z,97750.47
2019-05-09T04:49:41.145Z,97745.26
2019-05-09T04:52:09.594Z,97745.14
2019-05-09T04:54:39.340Z,97749.09
2019-05-09T04:57:08.873Z,97743.02
2019-05-09T04:59:38.586Z,97742.76
2019-05-09T05:02:27.534Z,97737.63
2019-05-09T05:04:58.545Z,97734.64
2019-05-09T05:07:28.847Z,97730.31
2019-05-09T05:09:58.686Z,97724.88
2019-05-09T05:12:28.561Z,97727.50
2019-05-09T05:14:58.230Z,97726.58
2019-05-09T05:17:30.486Z,97725.98
2019-05-09T05:20:00.249Z,97732.84
2019-05-09T05:22:47.857Z,97723.70
2019-05-09T05:25:17.913Z,97727.48
2019-05-09T05:27:47.602Z,97732.13
2019-05-09T05:30:18.074Z,97731.67
2019-05-09T05:32:57.846Z,97739.88
2019-05-09T05:35:49.440Z,97729.98
2019-05-09T05:38:19.137Z,97728.67
2019-05-09T05:40:49.956Z,97731.16
2019-05-09T05:43:19.747Z,97735.66
2019-05-09T05:46:08.358Z,97729.70
2019-05-09T05:48:39.335Z,97730.70
2019-05-09T05:51:09.169Z,97722.31
2019-05-09T05:53:38.856Z,97720.17
2019-05-09T05:56:08.602Z,97717.59
2019-05-09T05:58:38.703Z,97713.06
2019-05-09T06:01:08.482Z,97712.67
2019-05-09T06:03:38.131Z,97711.11
2019-05-09T06:06:08.809Z,97706.91
2019-05-09T06:08:38.406Z,97709.70
2019-05-09T06:11:11.882Z,97707.41
2019-05-09T06:13:53.244Z,97702.94
2019-05-09T06:16:10.841Z,97696.88
2019-05-09T06:18:40.609Z,97688.31
2019-05-09T06:21:10.126Z,97689.30
2019-05-09T06:23:39.783Z,97689.80
2019-05-09T06:26:10.323Z,97686.46
2019-05-09T06:28:40.119Z,97686.23
2019-05-09T06:31:09.826Z,97684.97
2019-05-09T06:33:46.526Z,97685.50
2019-05-09T06:36:11.238Z,97680.88
2019-05-09T06:38:41.017Z,97680.79
2019-05-09T06:41:12.266Z,97678.33
2019-05-09T06:43:43.141Z,97676.30
2019-05-09T06:46:40.645Z,97681.42
2019-05-09T06:49:24.346Z,97683.24
2019-05-09T06:51:44.839Z,97678.16
2019-05-09T06:54:14.294Z,97676.84
2019-05-09T06:56:44.089Z,97672.11
2019-05-09T06:59:13.695Z,97675.45
2019-05-09T07:02:08.442Z,97672.97
2019-05-09T07:04:54.028Z,97678.46
2019-05-09T07:07:44.526Z,97673.10
2019-05-09T07:10:14.574Z,97677.91
2019-05-09T07:12:43.992Z,97677.58
2019-05-09T07:15:13.622Z,97679.89
2019-05-09T07:17:43.276Z,97680.97
2019-05-09T07:20:13.070Z,97669.28
2019-05-09T07:22:48.125Z,97671.63
2019-05-09T07:25:47.834Z,97667.72
2019-05-09T07:28:18.115Z,97671.05
2019-05-09T07:31:11.683Z,97670.39
2019-05-09T07:34:03.086Z,97671.80
2019-05-09T07:36:32.648Z,97670.72
2019-05-09T07:39:02.419Z,97658.19
2019-05-09T07:41:33.737Z,97657.33
2019-05-09T07:44:03.605Z,97650.52
2019-05-09T07:46:34.739Z,97652.22
2019-05-09T07:49:08.627Z,97645.80
2019-05-09T07:51:38.340Z,97637.68
2019-05-09T07:54:20.646Z,97644.57
2019-05-09T07:56:39.533Z,97640.91
2019-05-09T07:59:09.196Z,97641.09
2019-05-09T08:01:38.815Z,97637.25
2019-05-09T08:04:08.545Z,97632.33
2019-05-09T08:06:38.181Z,97636.55
2019-05-09T08:09:08.647Z,97633.23
2019-05-09T08:11:41.209Z,97629.04
2019-05-09T08:14:11.416Z,97630.92
2019-05-09T08:16:41.017Z,97625.39
2019-05-09T08:19:11.497Z,97622.40
2019-05-09T08:21:41.703Z,97620.83
2019-05-09T08:24:11.925Z,97618.11
2019-05-09T08:26:41.823Z,97615.72
2019-05-09T08:29:11.662Z,97611.88
2019-05-09T08:31:41.448Z,97607.07
2019-05-09T08:34:11.291Z,97605.67
2019-05-09T08:36:40.829Z,97596.98
2019-05-09T08:39:10.444Z,97592.28
2019-05-09T08:41:40.178Z,97582.88
2019-05-09T08:44:10.049Z,97581.77
2019-05-09T08:46:39.806Z,97571.50
2019-05-09T08:49:09.655Z,97574.41
2019-05-09T08:51:55.662Z,97567.69
2019-05-09T08:54:34.793Z,97568.88
2019-05-09T08:57:04.323Z,97566.70
2019-05-09T08:59:34.186Z,97570.79
2019-05-09T09:02:15.726Z,97564.48
2019-05-09T09:04:38.157Z,97559.88
2019-05-09T09:07:08.365Z,97556.48
2019-05-09T09:09:38.350Z,97556.20
2019-05-09T09:12:25.229Z,97548.73
2019-05-09T09:14:39.845Z,97551.58
2019-05-09T09:17:09.591Z,97550.12
2019-05-09T09:19:39.330Z,97542.30
2019-05-09T09:22:09.217Z,97539.86
2019-05-09T09:24:39.046Z,97544.89
2019-05-09T09:27:08.878Z,97539.76
2019-05-09T09:29:38.680Z,97537.85
2019-05-09T09:32:08.637Z,97533.23
2019-05-09T09:34:38.618Z,97530.47
2019-05-09T09:37:11.472Z,97522.39
2019-05-09T09:39:44.559Z,97522.56
2019-05-09T09:42:11.425Z,97523.30
2019-05-09T09:44:41.089Z,97519.13
2019-05-09T09:47:11.152Z,97519.41
2019-05-09T09:49:40.755Z,97508.55
2019-05-09T09:52:10.739Z,97506.83
2019-05-09T09:54:40.287Z,97496.83
2019-05-09T09:57:10.198Z,97499.28
2019-05-09T09:59:48.460Z,97497.16
2019-05-09T10:02:19.848Z,97498.41
2019-05-09T10:04:49.755Z,97483.25
2019-05-09T10:07:19.641Z,97483.25
2019-05-09T10:09:49.680Z,97477.28
2019-05-09T10:12:19.294Z,97478.09
2019-05-09T10:14:58.802Z,97473.13
2019-05-09T10:17:49.804Z,97475.95
2019-05-09T10:20:32.860Z,97474.53
2019-05-09T10:23:11.037Z,97473.71
2019-05-09T10:25:34.212Z,97462.25
2019-05-09T10:28:04.140Z,97460.83
2019-05-09T10:30:38.008Z,97458.11
2019-05-09T10:33:09.243Z,97453.60
2019-05-09T10:35:39.159Z,97451.41
2019-05-09T10:38:09.224Z,97452.25
2019-05-09T10:40:40.360Z,97443.45
2019-05-09T10:43:33.985Z,97450.02
2019-05-09T10:46:19.335Z,97447.50
2019-05-09T10:48:54.959Z,97431.72
2019-05-09T10:51:24.571Z,97443.19
2019-05-09T10:53:54.370Z,97427.58
2019-05-09T10:56:24.195Z,97420.83
2019-05-09T10:58:53.981Z,97428.61
2019-05-09T11:01:23.519Z,97424.55
2019-05-09T11:03:53.273Z,97421.34
2019-05-09T11:06:22.869Z,97413.91
2019-05-09T11:08:52.594Z,97414.09
2019-05-09T11:11:22.614Z,97410.88
2019-05-09T11:13:52.160Z,97409.34
2019-05-09T11:16:22.061Z,97401.13
2019-05-09T11:18:51.771Z,97407.31
2019-05-09T11:21:21.584Z,97406.52
2019-05-09T11:23:51.116Z,97401.95
2019-05-09T11:26:20.639Z,97403.13
2019-05-09T11:28:50.508Z,97396.55
2019-05-09T11:31:20.563Z,97392.88
2019-05-09T11:33:50.463Z,97398.45
2019-05-09T11:36:21.218Z,97388.48
2019-05-09T11:38:51.183Z,97387.23
2019-05-09T11:41:21.057Z,97385.31
2019-05-09T11:43:52.084Z,97383.23
2019-05-09T11:46:21.762Z,97386.98
2019-05-09T11:48:51.289Z,97386.20
2019-05-09T11:51:22.881Z,97384.06
2019-05-09T11:53:52.111Z,97388.70
2019-05-09T11:56:22.004Z,97381.09
2019-05-09T11:58:51.488Z,97378.00
2019-05-09T12:01:21.054Z,97379.20
2019-05-09T12:03:52.390Z,97376.37
2019-05-09T12:06:22.366Z,97380.05
2019-05-09T12:08:51.851Z,97373.34
2019-05-09T12:11:21.266Z,97375.66
2019-05-09T12:13:50.685Z,97381.10
2019-05-09T12:16:20.560Z,97382.39
2019-05-09T12:18:50.256Z,97372.59
2019-05-09T12:21:19.968Z,97375.42
2019-05-09T12:23:50.065Z,97365.09
2019-05-09T12:26:19.617Z,97365.95
2019-05-09T12:28:49.492Z,97362.77
2019-05-09T12:31:19.198Z,97365.13
2019-05-09T12:33:48.749Z,97390.66
2019-05-09T12:36:19.142Z,97339.30
2019-05-09T12:38:50.224Z,97351.61
2019-05-09T12:41:20.208Z,97341.82
2019-05-09T12:43:50.003Z,97339.50
2019-05-09T12:46:19.746Z,97334.37
2019-05-09T12:48:49.572Z,97336.14
2019-05-09T12:51:19.351Z,97326.67
2019-05-09T12:53:49.138Z,97331.45
2019-05-09T12:56:18.970Z,97325.63
2019-05-09T12:58:48.734Z,97325.13
2019-05-09T13:01:19.018Z,97321.17
2019-05-09T13:03:48.771Z,97328.13
2019-05-09T13:06:19.955Z,97325.78
2019-05-09T13:08:50.277Z,97324.52
2019-05-09T13:11:20.262Z,97327.17
2019-05-09T13:13:50.095Z,97325.51
2019-05-09T13:16:49.030Z,97329.94
2019-05-09T13:19:14.847Z,97322.25
2019-05-09T13:21:44.250Z,97323.34
2019-05-09T13:24:13.720Z,97316.99
2019-05-09T13:26:44.874Z,97315.44
2019-05-09T13:29:14.666Z,97314.83
2019-05-09T13:31:44.367Z,97317.11
2019-05-09T13:34:14.237Z,97309.09
2019-05-09T13:36:44.160Z,97313.09
2019-05-09T13:39:13.898Z,97310.37
2019-05-09T13:41:43.689Z,97303.86
2019-05-09T13:44:14.140Z,97308.08
2019-05-09T13:46:44.196Z,97304.87
2019-05-09T13:49:15.600Z,97305.09
2019-05-09T13:51:51.031Z,97306.80
2019-05-09T13:54:18.472Z,97305.94
2019-05-09T13:56:54.978Z,97304.29
2019-05-09T13:59:19.927Z,97312.33
2019-05-09T14:01:49.713Z,97307.53
2019-05-09T14:04:19.276Z,97302.59
2019-05-09T14:06:49.099Z,97304.53
2019-05-09T14:09:20.144Z,97304.30
2019-05-09T14:11:49.994Z,97301.16
2019-05-09T14:14:19.588Z,97292.10
2019-05-09T14:16:49.330Z,97281.07
2019-05-09T14:19:38.592Z,97282.17
2019-05-09T14:21:50.014Z,97290.27
2019-05-09T14:24:19.558Z,97291.44
2019-05-09T14:26:49.219Z,97294.63
2019-05-09T14:29:20.467Z,97293.81
2019-05-09T14:31:50.553Z,97285.67
2019-05-09T14:34:20.327Z,97280.41
2019-05-09T14:36:50.118Z,97277.34
2019-05-09T14:39:19.829Z,97267.38
2019-05-09T14:41:49.559Z,97260.89
2019-05-09T14:44:19.004Z,97263.84
2019-05-09T14:46:48.898Z,97264.31
2019-05-09T14:49:18.778Z,97260.97
2019-05-09T14:51:49.982Z,97253.59
2019-05-09T14:54:19.989Z,97250.80
2019-05-09T14:56:49.955Z,97261.13
2019-05-09T14:59:19.749Z,97264.75
2019-05-09T15:01:49.794Z,97261.01
2019-05-09T15:04:19.623Z,97250.12
2019-05-09T15:06:49.449Z,97248.86
2019-05-09T15:09:18.954Z,97245.84
2019-05-09T15:11:48.860Z,97237.83
2019-05-09T15:14:18.419Z,97235.25
2019-05-09T15:16:48.682Z,97236.98
2019-05-09T15:19:18.668Z,97227.60
2019-05-09T15:21:48.984Z,97222.34
2019-05-09T15:24:19.318Z,97216.15
2019-05-09T15:26:49.405Z,97212.48
2019-05-09T15:29:18.841Z,97209.88
2019-05-09T15:31:54.749Z,97209.44
2019-05-09T15:34:19.918Z,97208.03
2019-05-09T15:36:49.333Z,97201.78
2019-05-09T15:39:18.763Z,97192.56
2019-05-09T15:41:48.300Z,97180.63
2019-05-09T15:44:18.642Z,97186.91
2019-05-09T15:46:52.739Z,97187.41
2019-05-09T15:49:22.159Z,97179.22
2019-05-09T15:51:51.685Z,97176.48
2019-05-09T15:54:21.188Z,97180.94
2019-05-09T15:56:50.993Z,97181.09
2019-05-09T15:59:20.650Z,97190.04
2019-05-09T16:01:50.448Z,97190.91
2019-05-09T16:04:20.336Z,97192.69
2019-05-09T16:06:51.621Z,97195.98
2019-05-09T16:09:21.566Z,97184.52
2019-05-09T16:11:51.323Z,97175.00
2019-05-09T16:14:21.077Z,97181.92
2019-05-09T16:16:50.785Z,97179.55
2019-05-09T16:19:20.576Z,97179.55
2019-05-09T16:21:50.366Z,97180.72
2019-05-09T16:24:19.812Z,97176.14
2019-05-09T16:26:50.016Z,97171.94
2019-05-09T16:29:19.517Z,97167.86
2019-05-09T16:31:49.145Z,97163.06
2019-05-09T16:34:18.978Z,97161.41
2019-05-09T16:36:48.786Z,97160.36
2019-05-09T16:39:18.433Z,97168.17
2019-05-09T16:41:48.784Z,97165.53
2019-05-09T16:44:18.726Z,97160.23
2019-05-09T16:46:48.798Z,97152.42
2019-05-09T16:49:19.818Z,97156.09
2019-05-09T16:51:49.965Z,97156.03
2019-05-09T16:54:20.176Z,97150.16
2019-05-09T16:56:49.952Z,97155.12
2019-05-09T16:59:19.807Z,97151.89
2019-05-09T17:01:50.404Z,97152.73
2019-05-09T17:04:20.270Z,97155.36
2019-05-09T17:06:50.028Z,97165.22
2019-05-09T17:09:19.872Z,97163.05
2019-05-09T17:11:49.671Z,97159.29
2019-05-09T17:14:19.586Z,97158.27
2019-05-09T17:16:52.650Z,97157.56
2019-05-09T17:19:20.912Z,97165.86
2019-05-09T17:21:59.596Z,97165.47
2019-05-09T17:24:29.929Z,97169.22
2019-05-09T17:26:59.797Z,97169.30
2019-05-09T17:29:29.687Z,97167.89
2019-05-09T17:31:59.448Z,97169.40
2019-05-09T17:34:29.250Z,97174.41
2019-05-09T17:36:58.945Z,97165.75
2019-05-09T17:39:28.830Z,97174.61
2019-05-09T17:41:58.735Z,97182.65
2019-05-09T17:44:28.314Z,97165.75
2019-05-09T17:46:58.274Z,97167.61
2019-05-09T17:49:28.232Z,97165.16
2019-05-09T17:51:58.573Z,97168.67
2019-05-09T17:54:28.917Z,97169.97
2019-05-09T17:56:58.681Z,97172.60
2019-05-09T17:59:29.291Z,97170.54
2019-05-09T18:01:58.896Z,97172.64
2019-05-09T18:04:28.993Z,97171.47
2019-05-09T18:06:58.859Z,97174.59
2019-05-09T18:09:28.864Z,97175.52
2019-05-09T18:11:58.665Z,97168.80
2019-05-09T18:14:28.439Z,97172.41
2019-05-09T18:16:58.388Z,97166.98
2019-05-09T18:19:29.327Z,97171.23
2019-05-09T18:21:59.753Z,97168.23
2019-05-09T18:24:29.431Z,97175.13
2019-05-09T18:26:59.126Z,97176.34
2019-05-09T18:29:28.978Z,97178.12
2019-05-09T18:32:08.796Z,97180.02
2019-05-09T18:34:38.247Z,97177.27
2019-05-09T18:37:08.197Z,97173.23
2019-05-09T18:39:38.128Z,97173.90
2019-05-09T18:42:08.809Z,97175.88
2019-05-09T18:44:38.604Z,97172.38
2019-05-09T18:47:08.025Z,97175.83
2019-05-09T18:49:37.883Z,97175.72
2019-05-09T18:52:07.793Z,97182.27
2019-05-09T18:54:37.650Z,97181.05
2019-05-09T18:57:07.346Z,97175.48
2019-05-09T18:59:36.797Z,97181.52
2019-05-09T19:02:06.747Z,97178.66
2019-05-09T19:04:36.523Z,97183.93
2019-05-09T19:07:21.314Z,97176.00
2019-05-09T19:09:37.748Z,97188.45
2019-05-09T19:12:07.481Z,97184.59
2019-05-09T19:14:37.341Z,97184.67
2019-05-09T19:17:29.203Z,97177.13
2019-05-09T19:20:16.589Z,97177.50
2019-05-09T19:22:46.411Z,97177.04
2019-05-09T19:25:16.507Z,97178.23
2019-05-09T19:27:46.386Z,97174.84
2019-05-09T19:30:15.894Z,97174.58
2019-05-09T19:32:45.309Z,97171.47
2019-05-09T19:35:15.388Z,97172.72
2019-05-09T19:37:45.155Z,97168.20
2019-05-09T19:40:20.019Z,97170.95
2019-05-09T19:42:46.645Z,97170.35
2019-05-09T19:45:17.082Z,97162.23
2019-05-09T19:47:46.597Z,97160.73
2019-05-09T19:50:16.608Z,97156.22
2019-05-09T19:52:46.307Z,97156.39
2019-05-09T19:55:15.838Z,97157.23
2019-05-09T19:57:45.457Z,97148.63
2019-05-09T20:00:17.343Z,97155.58
2019-05-09T20:02:46.880Z,97162.94
2019-05-09T20:05:17.055Z,97152.94
2019-05-09T20:07:46.479Z,97151.34
2019-05-09T20:10:44.416Z,97154.08
2019-05-09T20:13:38.902Z,97154.92
2019-05-09T20:16:08.803Z,97150.64
2019-05-09T20:18:38.240Z,97151.20
2019-05-09T20:21:07.659Z,97151.76
2019-05-09T20:23:37.425Z,97149.67
2019-05-09T20:26:07.007Z,97146.53
2019-05-09T20:28:36.717Z,97146.56
2019-05-09T20:31:06.457Z,97154.89
2019-05-09T20:33:36.241Z,97157.37
2019-05-09T20:36:06.026Z,97153.80
2019-05-09T20:38:35.908Z,97153.98
2019-05-09T20:41:05.583Z,97156.61
2019-05-09T20:43:35.462Z,97153.00
2019-05-09T20:46:05.389Z,97157.72
2019-05-09T20:48:35.241Z,97155.55
2019-05-09T20:51:05.045Z,97153.64
2019-05-09T20:53:34.638Z,97158.55
2019-05-09T20:56:04.743Z,97160.51
2019-05-09T20:58:34.766Z,97164.30
2019-05-09T21:01:04.770Z,97159.67
2019-05-09T21:03:34.551Z,97163.44
2019-05-09T21:06:04.176Z,97159.59
2019-05-09T21:08:34.617Z,97156.38
2019-05-09T21:11:04.318Z,97170.54
2019-05-09T21:13:47.325Z,97167.39
2019-05-09T21:16:06.053Z,97165.40
2019-05-09T21:18:35.818Z,97161.41
2019-05-09T21:21:05.918Z,97163.91
2019-05-09T21:23:35.951Z,97167.05
2019-05-09T21:26:05.961Z,97175.72
2019-05-09T21:28:35.643Z,97173.77
2019-05-09T21:31:05.456Z,97174.67
2019-05-09T21:33:35.463Z,97179.31
2019-05-09T21:36:05.215Z,97175.20
2019-05-09T21:38:34.702Z,97172.19
2019-05-09T21:41:04.488Z,97174.16
2019-05-09T21:43:34.013Z,97175.92
2019-05-09T21:46:03.507Z,97178.53
2019-05-09T21:48:33.246Z,97186.04
2019-05-09T21:51:02.753Z,97184.16
2019-05-09T21:53:40.450Z,97187.56
2019-05-09T21:56:04.108Z,97186.98
2019-05-09T21:58:33.824Z,97190.39
2019-05-09T22:01:04.054Z,97193.56
2019-05-09T22:03:33.763Z,97193.20
2019-05-09T22:06:03.392Z,97192.44
2019-05-09T22:08:32.851Z,97191.71
2019-05-09T22:11:02.302Z,97198.80
2019-05-09T22:13:32.031Z,97197.93
2019-05-09T22:16:01.780Z,97191.03
2019-05-09T22:18:31.496Z,97194.96
2019-05-09T22:21:00.989Z,97194.30
2019-05-09T22:23:30.852Z,97197.44
2019-05-09T22:26:00.726Z,97199.67
2019-05-09T22:28:30.151Z,97202.12
2019-05-09T22:30:59.575Z,97206.25
2019-05-09T22:33:29.260Z,97201.03
2019-05-09T22:35:58.767Z,97198.80
2019-05-09T22:38:28.195Z,97192.45
2019-05-09T22:40:58.050Z,97188.67
2019-05-09T22:43:27.654Z,97194.85
2019-05-09T22:45:57.433Z,97190.30
2019-05-09T22:48:27.188Z,97187.95
2019-05-09T22:50:56.728Z,97182.36
2019-05-09T22:53:26.274Z,97182.27
2019-05-09T22:55:56.094Z,97180.18
2019-05-09T22:58:25.927Z,97179.41
2019-05-09T23:00:55.728Z,97180.53
2019-05-09T23:03:25.318Z,97172.77
2019-05-09T23:05:54.832Z,97171.50
2019-05-09T23:08:24.345Z,97168.55
2019-05-09T23:10:54.099Z,97168.72
2019-05-09T23:13:23.755Z,97166.05
2019-05-09T23:15:53.622Z,97161.32
2019-05-09T23:18:23.391Z,97161.41
2019-05-09T23:20:55.624Z,97163.49
2019-05-09T23:23:38.382Z,97158.23
2019-05-09T23:26:08.289Z,97161.14
2019-05-09T23:28:37.712Z,97160.77
2019-05-09T23:31:11.503Z,97170.17
2019-05-09T23:33:42.443Z,97167.98
2019-05-09T23:36:11.937Z,97165.81
2019-05-09T23:39:00.704Z,97160.36
2019-05-09T23:41:30.454Z,97155.83
2019-05-09T23:44:00.221Z,97156.32
2019-05-09T23:46:29.718Z,97155.95
2019-05-09T23:48:59.510Z,97157.81
2019-05-09T23:51:45.040Z,97156.05
2019-05-09T23:54:45.226Z,97157.73
2019-05-09T23:57:24.075Z,97159.27
